Flugplatz Backnang-Heiningen

Für EDSH sind keine METAR/TAF Berichte vorhanden.
Es werden die Flugwettermeldungen vom Flugplatz Stuttgart in 30 km Entfernung angezeigt.

Bericht für EDDS

vom 25.01. um 22:50 UTC

variable Windrichtung mit 1 kt

Sichtweite 10 km oder mehr

gute Sicht, keine Wolken < 5000 ft, keine CB, keine Wettererscheinungen (CAVOK)

Temperatur -1.0°C

Taupunkt -1.0°C

Luftfeuchtigkeit 100%

Luftdruck 1020 hPa

EDDS 252250Z VRB01KT CAVOK M01/M01 Q1020

Prognose für EDDS

vom 25.01. um 00:00 UTC

Am 25.01. zwischen 00:00 UTC und 00:00 UTC

variable Windrichtung mit 2 kt

Sichtweite 10 km oder mehr

keine signifikanten Wettererscheinungen

keine Wolken


Am 25.01. zwischen 00:00 UTC und 00:00 UTC zeitweise mit einer Wahrscheinlichkeit von 40%

Sichtweite 400 m

Code: FZFG

aufgebrochene Bewölkung in 100 ft


Zwischen 00:00 UTC und 00:00 UTC zeitweise mit einer Wahrscheinlichkeit von 40%

Sichtweite 4000 m

feuchter Dunst

aufgebrochene Bewölkung in 100 ft

TAF EDDS 251700Z 2518/2618 VRB02KT CAVOK PROB40 TEMPO 2521/2608 0400 FZFG BKN001 PROB40 TEMPO 2608/2610 4000 BR BKN001
Impressum